Time;durP1;ratioP1;P1;durP2;ratioP2;P2;SDS_P1;SDS_P2;PMS_P1;PMS_P2;Temp;Humidity;BMP_temperature;BMP_pressure;BME280_temperature;BME280_humidity;BME280_pressure;Samples;Min_cycle;Max_cycle;Signal;HPM_P1;HPM_P2
2021/04/18 00:00:19;;;;;;;10.53;9.23;;;10.30;1.00;;;;;;5070325;28;20525;-57
2021/04/18 00:02:45;;;;;;;11.73;9.40;;;10.40;1.00;;;;;;5070418;28;20216;-56
2021/04/18 00:05:11;;;;;;;11.80;8.67;;;10.40;1.00;;;;;;5069875;28;20897;-57
2021/04/18 00:07:37;;;;;;;9.20;7.93;;;10.20;1.00;;;;;;5070145;28;21013;-57
2021/04/18 00:10:05;;;;;;;9.73;8.40;;;10.30;1.00;;;;;;5070061;28;20467;-57
2021/04/18 00:12:30;;;;;;;10.27;9.00;;;10.30;1.00;;;;;;5069980;28;20261;-59
2021/04/18 00:14:56;;;;;;;10.37;8.67;;;10.30;1.00;;;;;;5070057;28;20466;-57
2021/04/18 00:17:22;;;;;;;9.80;8.30;;;10.40;1.00;;;;;;5070010;28;20238;-56
2021/04/18 00:19:48;;;;;;;9.23;8.00;;;10.40;1.00;;;;;;5069566;28;20443;-55
2021/04/18 00:22:13;;;;;;;11.40;8.33;;;10.40;1.00;;;;;;5069446;28;20187;-57
2021/04/18 00:24:39;;;;;;;12.10;8.30;;;10.30;1.00;;;;;;5070050;28;21190;-57
2021/04/18 00:27:05;;;;;;;12.43;9.00;;;10.20;1.00;;;;;;5073667;28;20180;-58
2021/04/18 00:29:31;;;;;;;9.70;8.33;;;10.40;1.00;;;;;;5070159;28;20298;-56
2021/04/18 00:31:56;;;;;;;15.90;10.20;;;10.40;1.00;;;;;;5069739;28;20506;-56
2021/04/18 00:34:22;;;;;;;17.20;9.77;;;10.40;1.00;;;;;;5068066;28;20274;-57
2021/04/18 00:36:48;;;;;;;11.10;8.90;;;10.30;1.00;;;;;;5069615;28;20187;-56
2021/04/18 00:39:14;;;;;;;11.37;8.73;;;10.20;1.00;;;;;;5069601;28;20445;-58
2021/04/18 00:41:39;;;;;;;11.47;9.00;;;10.10;1.00;;;;;;5069545;28;20237;-57
2021/04/18 00:44:05;;;;;;;9.93;8.90;;;10.10;1.00;;;;;;5069809;28;20245;-56
2021/04/18 00:46:30;;;;;;;14.20;9.50;;;10.20;1.00;;;;;;5068098;28;20313;-57
2021/04/18 00:48:56;;;;;;;11.00;8.53;;;10.30;1.00;;;;;;5066956;28;20200;-56
2021/04/18 00:51:21;;;;;;;9.53;8.63;;;10.20;1.00;;;;;;5067227;28;20252;-58
2021/04/18 00:53:47;;;;;;;11.30;9.93;;;10.20;1.00;;;;;;5067187;28;20270;-57
2021/04/18 00:56:13;;;;;;;15.17;8.37;;;10.20;1.00;;;;;;5066082;28;20180;-57
2021/04/18 00:58:39;;;;;;;13.23;9.67;;;10.10;1.00;;;;;;5066736;28;20186;-57
2021/04/18 01:01:07;;;;;;;14.27;8.80;;;10.20;1.00;;;;;;5067644;28;20320;-58
2021/04/18 01:03:33;;;;;;;10.20;9.00;;;10.20;1.00;;;;;;5066472;28;20453;-57
2021/04/18 01:05:58;;;;;;;11.33;9.40;;;10.30;1.00;;;;;;5066999;28;20534;-57
2021/04/18 01:08:24;;;;;;;11.60;9.37;;;10.30;1.00;;;;;;5066877;28;20201;-58
2021/04/18 01:10:49;;;;;;;11.07;8.70;;;10.30;1.00;;;;;;5066345;28;20216;-58
2021/04/18 01:13:15;;;;;;;10.60;8.70;;;10.20;1.00;;;;;;5066449;28;20203;-58
2021/04/18 01:15:41;;;;;;;11.40;8.87;;;10.20;1.00;;;;;;5067411;28;20185;-57
2021/04/18 01:18:06;;;;;;;12.90;9.80;;;10.40;1.00;;;;;;5067610;28;20185;-56
2021/04/18 01:20:32;;;;;;;10.80;8.90;;;10.40;1.00;;;;;;5066303;28;20185;-57
2021/04/18 01:22:57;;;;;;;16.43;10.10;;;10.40;1.00;;;;;;5067178;28;20179;-58
2021/04/18 01:25:23;;;;;;;10.50;8.80;;;10.30;1.00;;;;;;5065673;28;20930;-59
2021/04/18 01:27:49;;;;;;;10.77;9.50;;;10.20;1.00;;;;;;5066184;28;20698;-57
2021/04/18 01:30:25;;;;;;;11.33;9.03;;;10.20;1.00;;;;;;5067157;28;20544;-56
2021/04/18 01:32:53;;;;;;;11.13;10.00;;;10.20;1.00;;;;;;5067150;28;20822;-56
2021/04/18 01:35:20;;;;;;;12.00;10.27;;;10.20;1.00;;;;;;5065810;28;20865;-57
2021/04/18 01:37:46;;;;;;;10.73;8.87;;;10.40;1.00;;;;;;5067913;28;20620;-58
2021/04/18 01:40:14;;;;;;;12.20;10.53;;;10.40;1.00;;;;;;5068975;28;20475;-57
2021/04/18 01:42:40;;;;;;;11.60;9.47;;;10.40;1.00;;;;;;5068812;28;20458;-57
2021/04/18 01:45:08;;;;;;;10.90;9.43;;;10.30;1.00;;;;;;5072061;28;20523;-57
2021/04/18 01:47:34;;;;;;;13.43;10.77;;;10.30;1.00;;;;;;5068932;28;20454;-57
2021/04/18 01:49:59;;;;;;;12.73;11.43;;;10.30;1.00;;;;;;5070891;28;20477;-58
2021/04/18 01:52:25;;;;;;;13.13;10.40;;;10.20;1.00;;;;;;5070300;28;20274;-56
2021/04/18 01:54:51;;;;;;;12.10;10.73;;;10.30;1.00;;;;;;5069428;28;20177;-57
2021/04/18 01:57:17;;;;;;;13.20;11.90;;;10.30;1.00;;;;;;5070467;28;20827;-57
2021/04/18 01:59:42;;;;;;;13.10;11.80;;;10.50;1.00;;;;;;5071396;28;20560;-57
2021/04/18 02:02:09;;;;;;;12.60;10.60;;;10.40;1.00;;;;;;5070073;28;20185;-58
2021/04/18 02:04:35;;;;;;;15.30;11.43;;;10.40;1.00;;;;;;5071000;28;20193;-56
2021/04/18 02:07:02;;;;;;;14.03;11.53;;;10.30;1.00;;;;;;5069658;28;20815;-57
2021/04/18 02:09:30;;;;;;;14.87;11.50;;;10.20;1.00;;;;;;5067971;28;20442;-57
2021/04/18 02:11:57;;;;;;;15.20;11.53;;;10.20;1.00;;;;;;5071640;28;20917;-57
2021/04/18 02:14:24;;;;;;;14.07;11.43;;;10.20;1.00;;;;;;5071777;28;20450;-56
2021/04/18 02:16:50;;;;;;;13.30;11.23;;;10.00;1.00;;;;;;5069866;28;20466;-57
2021/04/18 02:19:15;;;;;;;11.57;10.47;;;10.00;1.00;;;;;;5072292;28;20497;-56
2021/04/18 02:21:41;;;;;;;14.07;11.77;;;10.00;1.00;;;;;;5071195;28;20177;-57
2021/04/18 02:24:06;;;;;;;14.27;10.67;;;10.10;1.00;;;;;;5070058;28;20544;-56
2021/04/18 02:26:32;;;;;;;12.50;11.13;;;10.10;1.00;;;;;;5071495;28;20256;-56
2021/04/18 02:28:58;;;;;;;14.47;10.90;;;10.10;1.00;;;;;;5071363;28;20479;-57
2021/04/18 02:31:23;;;;;;;13.60;11.87;;;10.20;1.00;;;;;;5069594;28;20379;-56
2021/04/18 02:33:49;;;;;;;13.77;11.67;;;10.20;1.00;;;;;;5069892;28;20186;-56
2021/04/18 02:36:14;;;;;;;12.07;10.80;;;10.20;1.00;;;;;;5067500;28;20289;-57
2021/04/18 02:38:40;;;;;;;12.50;11.20;;;10.20;1.00;;;;;;5068493;28;20188;-56
2021/04/18 02:41:06;;;;;;;16.47;10.87;;;10.20;1.00;;;;;;5068467;28;20282;-57
2021/04/18 02:43:31;;;;;;;12.60;11.30;;;10.20;1.00;;;;;;5068614;28;20456;-56
2021/04/18 02:45:57;;;;;;;13.63;12.17;;;10.30;1.00;;;;;;5069491;28;20290;-57
2021/04/18 02:48:23;;;;;;;12.67;11.40;;;10.30;1.00;;;;;;5069706;28;20242;-57
2021/04/18 02:50:48;;;;;;;12.00;10.70;;;10.30;1.00;;;;;;5068468;28;20792;-57
2021/04/18 02:53:14;;;;;;;16.43;11.17;;;10.30;1.00;;;;;;5067204;28;20188;-56
2021/04/18 02:55:40;;;;;;;12.30;11.10;;;10.30;1.00;;;;;;5068183;28;20273;-57
2021/04/18 02:58:06;;;;;;;12.50;11.20;;;10.20;1.00;;;;;;5069661;28;20190;-59
2021/04/18 03:00:31;;;;;;;13.03;11.57;;;10.20;1.00;;;;;;5067905;28;20189;-57
2021/04/18 03:02:57;;;;;;;14.10;11.50;;;10.30;1.00;;;;;;5068246;28;20441;-57
2021/04/18 03:05:23;;;;;;;14.13;11.50;;;10.30;1.00;;;;;;5068539;28;20186;-58
2021/04/18 03:07:48;;;;;;;15.40;11.77;;;10.30;1.00;;;;;;5069159;28;20200;-55
2021/04/18 03:10:14;;;;;;;16.60;12.30;;;10.30;1.00;;;;;;5069429;28;20202;-54
2021/04/18 03:12:40;;;;;;;12.70;11.53;;;10.30;1.00;;;;;;5068161;28;20199;-57
2021/04/18 03:15:07;;;;;;;15.53;11.83;;;10.30;1.00;;;;;;5068103;28;20494;-58
2021/04/18 03:17:33;;;;;;;11.50;10.30;;;10.30;1.00;;;;;;5067910;28;20526;-57
2021/04/18 03:19:59;;;;;;;13.47;10.30;;;10.20;1.00;;;;;;5066133;28;21036;-58
2021/04/18 03:22:24;;;;;;;12.50;10.63;;;10.20;1.00;;;;;;5069829;28;20537;-56
2021/04/18 03:24:50;;;;;;;15.53;11.20;;;10.30;1.00;;;;;;5067434;28;20189;-57
2021/04/18 03:27:16;;;;;;;13.63;12.20;;;10.30;1.00;;;;;;5068390;28;20443;-55
2021/04/18 03:29:41;;;;;;;13.00;11.30;;;10.40;1.00;;;;;;5066034;28;20229;-57
2021/04/18 03:32:07;;;;;;;19.97;11.70;;;10.40;1.00;;;;;;5067127;28;20691;-57
2021/04/18 03:34:33;;;;;;;14.70;10.97;;;10.40;1.00;;;;;;5066972;28;20715;-58
2021/04/18 03:36:58;;;;;;;13.13;11.80;;;10.40;1.00;;;;;;5065670;28;20502;-56
2021/04/18 03:39:24;;;;;;;13.67;12.30;;;10.30;1.00;;;;;;5070173;28;20178;-58
2021/04/18 03:41:49;;;;;;;13.60;12.20;;;10.30;1.00;;;;;;5067053;28;20521;-56
2021/04/18 03:44:15;;;;;;;12.73;11.50;;;10.30;1.00;;;;;;5067546;28;20230;-56
2021/04/18 03:46:42;;;;;;;14.73;13.10;;;10.30;1.00;;;;;;5068360;28;20220;-55
2021/04/18 03:49:08;;;;;;;14.13;12.53;;;10.30;1.00;;;;;;5067006;28;20648;-56
2021/04/18 03:51:33;;;;;;;13.67;11.50;;;10.20;1.00;;;;;;5068027;28;20494;-56
2021/04/18 03:53:59;;;;;;;16.70;12.97;;;10.30;1.00;;;;;;5068399;28;20695;-56
2021/04/18 03:56:25;;;;;;;14.50;13.00;;;10.30;1.00;;;;;;5069527;28;20542;-56
2021/04/18 03:58:50;;;;;;;16.43;11.80;;;10.30;1.00;;;;;;5069045;28;20646;-56
2021/04/18 04:01:16;;;;;;;13.37;12.10;;;10.30;1.00;;;;;;5069189;28;20615;-56
2021/04/18 04:03:42;;;;;;;13.60;11.77;;;10.20;1.00;;;;;;5067448;28;20183;-57
2021/04/18 04:06:07;;;;;;;15.47;12.93;;;10.20;1.00;;;;;;5067716;28;21407;-57
2021/04/18 04:08:33;;;;;;;13.47;12.07;;;11.20;1.00;;;;;;5068428;28;20452;-56
2021/04/18 04:10:59;;;;;;;13.70;12.20;;;10.10;1.00;;;;;;5067153;28;20683;-57
2021/04/18 04:13:24;;;;;;;12.83;11.50;;;10.00;1.00;;;;;;5066993;28;20203;-57
2021/04/18 04:15:50;;;;;;;12.97;11.67;;;10.00;1.00;;;;;;5066420;28;20496;-57
2021/04/18 04:18:15;;;;;;;16.47;12.80;;;10.00;1.00;;;;;;5067583;28;20186;-56
2021/04/18 04:20:41;;;;;;;17.00;12.20;;;10.10;1.00;;;;;;5067362;28;20208;-58
2021/04/18 04:23:07;;;;;;;13.03;11.63;;;10.10;1.00;;;;;;5067953;28;20663;-56
2021/04/18 04:25:33;;;;;;;15.63;11.30;;;10.10;1.00;;;;;;5068184;28;20195;-59
2021/04/18 04:27:59;;;;;;;17.10;12.03;;;10.10;1.00;;;;;;5067152;28;20648;-57
2021/04/18 04:30:25;;;;;;;14.80;12.37;;;10.10;1.00;;;;;;5066357;28;20554;-58
2021/04/18 04:32:50;;;;;;;14.67;13.17;;;10.30;1.00;;;;;;5066232;28;20189;-55
2021/04/18 04:35:17;;;;;;;13.10;11.20;;;10.20;1.00;;;;;;5066993;28;20211;-56
2021/04/18 04:37:42;;;;;;;14.27;12.87;;;10.30;1.00;;;;;;5067508;28;20438;-56
2021/04/18 04:40:08;;;;;;;13.97;11.23;;;10.20;1.00;;;;;;5068500;28;20501;-56
2021/04/18 04:42:34;;;;;;;14.27;12.67;;;10.20;1.00;;;;;;5070719;28;20199;-56
2021/04/18 04:44:59;;;;;;;14.20;11.70;;;10.20;1.00;;;;;;5066462;28;20518;-56
2021/04/18 04:47:25;;;;;;;15.30;12.63;;;10.30;1.00;;;;;;5066459;28;20195;-55
2021/04/18 04:49:50;;;;;;;15.87;13.00;;;10.30;1.00;;;;;;5067564;28;20205;-56
2021/04/18 04:52:16;;;;;;;14.17;12.33;;;10.30;1.00;;;;;;5067406;28;20231;-57
2021/04/18 04:54:42;;;;;;;16.67;12.00;;;10.20;1.00;;;;;;5067851;28;20233;-56
2021/04/18 04:57:07;;;;;;;13.00;11.67;;;10.30;1.00;;;;;;5066838;28;20181;-57
2021/04/18 04:59:33;;;;;;;13.07;11.67;;;10.20;1.00;;;;;;5066435;28;20599;-56
2021/04/18 05:01:59;;;;;;;15.37;13.17;;;10.20;1.00;;;;;;5060398;28;20663;-57
2021/04/18 05:04:24;;;;;;;15.93;11.90;;;10.30;1.00;;;;;;5061075;28;20263;-56
2021/04/18 05:06:50;;;;;;;14.73;13.23;;;10.40;1.00;;;;;;5063302;28;20251;-55
2021/04/18 05:09:16;;;;;;;15.53;12.90;;;10.40;1.00;;;;;;5064349;28;20186;-56
2021/04/18 05:11:41;;;;;;;13.43;11.50;;;10.30;1.00;;;;;;5060407;28;20212;-56
2021/04/18 05:14:07;;;;;;;17.53;12.57;;;10.20;1.00;;;;;;5061356;28;20768;-56
2021/04/18 05:16:32;;;;;;;14.83;11.77;;;10.30;1.00;;;;;;5069097;28;20193;-58
2021/04/18 05:18:58;;;;;;;18.63;12.67;;;10.30;1.00;;;;;;5066948;28;20194;-56
2021/04/18 05:21:24;;;;;;;17.20;12.90;;;10.50;1.00;;;;;;5066670;28;20557;-56
2021/04/18 05:23:50;;;;;;;17.57;13.80;;;10.50;1.00;;;;;;5066005;28;20206;-56
2021/04/18 05:26:15;;;;;;;17.53;13.40;;;10.50;1.00;;;;;;5065356;28;20213;-56
2021/04/18 05:28:41;;;;;;;13.67;12.00;;;10.60;1.00;;;;;;5070810;28;21053;-55
2021/04/18 05:31:07;;;;;;;18.80;12.70;;;10.60;1.00;;;;;;5070401;28;20219;-56
2021/04/18 05:33:33;;;;;;;16.33;14.30;;;10.60;1.00;;;;;;5070075;28;20477;-56
2021/04/18 05:35:58;;;;;;;19.37;13.57;;;10.70;1.00;;;;;;5070407;28;20477;-57
2021/04/18 05:38:24;;;;;;;14.77;13.27;;;10.70;1.00;;;;;;5070921;28;20187;-59
2021/04/18 05:40:50;;;;;;;16.47;13.37;;;10.60;1.00;;;;;;5071738;28;20181;-60
2021/04/18 05:43:15;;;;;;;17.87;13.70;;;10.60;1.00;;;;;;5071101;28;20191;-60
2021/04/18 05:45:41;;;;;;;14.43;12.53;;;10.60;1.00;;;;;;5070903;28;21707;-61
2021/04/18 05:48:07;;;;;;;16.40;14.70;;;10.50;1.00;;;;;;5069617;28;20182;-60
2021/04/18 05:50:33;;;;;;;15.33;13.77;;;10.60;1.00;;;;;;5069094;28;20621;-61
2021/04/18 05:52:59;;;;;;;17.50;15.00;;;10.70;1.00;;;;;;5070602;28;20443;-56
2021/04/18 05:55:25;;;;;;;18.47;15.00;;;10.70;1.00;;;;;;5072516;28;20435;-57
2021/04/18 05:57:51;;;;;;;18.33;14.60;;;10.80;1.00;;;;;;5072283;28;20174;-57
2021/04/18 06:00:17;;;;;;;19.03;15.23;;;10.80;1.00;;;;;;5073001;28;20719;-56
2021/04/18 06:02:43;;;;;;;17.17;15.33;;;10.80;1.00;;;;;;5070380;28;20496;-57
2021/04/18 06:05:09;;;;;;;16.20;14.50;;;10.80;1.00;;;;;;5072808;28;20968;-58
2021/04/18 06:07:34;;;;;;;19.57;17.07;;;10.90;1.00;;;;;;5072195;28;20221;-57
2021/04/18 06:10:00;;;;;;;16.03;14.33;;;11.10;1.00;;;;;;5071378;28;20503;-56
2021/04/18 06:12:26;;;;;;;19.60;16.27;;;11.20;1.00;;;;;;5074760;28;20262;-56
2021/04/18 06:14:52;;;;;;;18.20;15.23;;;11.20;1.00;;;;;;5069154;28;20183;-56
2021/04/18 06:17:18;;;;;;;20.40;15.27;;;11.10;1.00;;;;;;5066804;28;20196;-56
2021/04/18 06:19:43;;;;;;;18.37;15.63;;;11.10;1.00;;;;;;5068956;28;20442;-57
2021/04/18 06:22:09;;;;;;;16.13;14.53;;;11.00;1.00;;;;;;5069067;28;20172;-57
2021/04/18 06:24:35;;;;;;;19.50;14.97;;;10.80;1.00;;;;;;5069442;28;20193;-56
2021/04/18 06:27:00;;;;;;;21.70;16.60;;;10.60;1.00;;;;;;5067208;28;20193;-57
2021/04/18 06:29:26;;;;;;;20.97;16.87;;;10.10;1.00;;;;;;5068593;28;20211;-58
2021/04/18 06:31:52;;;;;;;18.00;16.10;;;10.10;1.00;;;;;;5070317;28;20541;-56
2021/04/18 06:34:22;;;;;;;18.93;15.93;;;10.20;1.00;;;;;;5070008;28;20264;-57
2021/04/18 06:36:48;;;;;;;16.70;14.80;;;10.30;1.00;;;;;;5069240;28;20178;-57
2021/04/18 06:39:14;;;;;;;20.30;16.30;;;10.40;1.00;;;;;;5069280;28;20800;-57
2021/04/18 06:41:41;;;;;;;19.37;15.80;;;10.60;1.00;;;;;;5069931;28;20480;-57
2021/04/18 06:44:08;;;;;;;25.23;17.20;;;10.60;1.00;;;;;;5070283;28;20466;-58
2021/04/18 06:46:34;;;;;;;20.40;15.90;;;10.50;1.00;;;;;;5069316;28;21081;-56
2021/04/18 06:49:00;;;;;;;17.03;14.50;;;10.80;1.00;;;;;;5068650;28;20478;-57
2021/04/18 06:51:26;;;;;;;19.37;16.67;;;10.90;1.00;;;;;;5068209;28;20472;-56
2021/04/18 06:53:52;;;;;;;20.07;16.50;;;11.20;1.00;;;;;;5069764;28;20915;-58
2021/04/18 06:56:18;;;;;;;17.90;15.37;;;11.40;1.00;;;;;;5069924;28;20265;-58
2021/04/18 06:58:43;;;;;;;18.93;15.93;;;11.40;1.00;;;;;;5069183;28;20540;-57
2021/04/18 07:01:09;;;;;;;19.07;16.10;;;11.60;1.00;;;;;;5068272;28;20181;-57
2021/04/18 07:03:35;;;;;;;21.87;16.03;;;11.80;1.00;;;;;;5079317;28;20227;-56
2021/04/18 07:06:02;;;;;;;16.07;14.37;;;12.10;1.00;;;;;;5067589;28;20898;-58
2021/04/18 07:08:32;;;;;;;22.07;16.03;;;12.60;1.00;;;;;;5068850;28;20441;-57
2021/04/18 07:11:18;;;;;;;21.67;17.97;;;12.60;1.00;;;;;;5069387;28;20467;-57
2021/04/18 07:13:46;;;;;;;21.97;16.10;;;12.40;1.00;;;;;;5068408;28;20441;-58
2021/04/18 07:16:32;;;;;;;18.00;16.20;;;12.50;1.00;;;;;;5068492;28;20436;-58
2021/04/18 07:18:58;;;;;;;20.00;16.60;;;;;;;;;;5069526;28;20486;-56
2021/04/18 07:21:44;;;;;;;20.40;17.00;;;12.40;1.00;;;;;;5069996;28;20491;-58
2021/04/18 07:24:10;;;;;;;21.77;17.80;;;12.20;1.00;;;;;;5067829;28;20475;-57
2021/04/18 07:26:35;;;;;;;20.30;17.10;;;12.30;1.00;;;;;;5068027;28;20476;-58
2021/04/18 07:29:18;;;;;;;23.23;16.50;;;12.40;1.00;;;;;;5068427;28;20266;-58
2021/04/18 07:31:44;;;;;;;19.47;17.40;;;12.60;1.00;;;;;;5069209;28;20202;-57
2021/04/18 07:34:15;;;;;;;24.53;18.67;;;12.70;1.00;;;;;;5067518;28;20445;-58
2021/04/18 07:36:44;;;;;;;18.83;16.80;;;13.00;1.00;;;;;;5066132;28;20450;-57
2021/04/18 07:39:12;;;;;;;21.20;17.20;;;12.80;1.00;;;;;;5068076;28;20491;-57
2021/04/18 07:41:41;;;;;;;23.63;17.00;;;12.90;1.00;;;;;;5069063;28;20794;-58
2021/04/18 07:44:14;;;;;;;25.57;19.20;;;13.10;1.00;;;;;;5068906;28;20452;-58
2021/04/18 07:46:47;;;;;;;20.17;16.50;;;13.10;1.00;;;;;;5048547;28;20463;-57
2021/04/18 07:49:14;;;;;;;18.80;16.80;;;13.40;1.00;;;;;;5067923;28;20942;-58
2021/04/18 07:51:42;;;;;;;21.40;17.50;;;13.60;1.00;;;;;;5072022;28;20978;-58
2021/04/18 07:54:09;;;;;;;21.70;18.20;;;13.60;1.00;;;;;;5066464;28;20476;-59
2021/04/18 07:56:35;;;;;;;22.00;17.47;;;13.60;1.00;;;;;;5067989;28;20926;-59
2021/04/18 07:59:01;;;;;;;20.23;18.07;;;13.70;1.00;;;;;;5068735;28;20440;-59
2021/04/18 08:01:27;;;;;;;20.30;17.33;;;13.80;1.00;;;;;;5068276;28;20218;-58
2021/04/18 08:03:52;;;;;;;19.97;17.00;;;13.70;1.00;;;;;;5066200;28;20882;-58
2021/04/18 08:06:19;;;;;;;21.43;17.67;;;13.60;1.00;;;;;;5065653;28;20187;-59
2021/04/18 08:08:53;;;;;;;25.10;18.83;;;13.70;1.00;;;;;;5066073;28;20453;-58
2021/04/18 08:11:22;;;;;;;23.47;18.57;;;13.60;1.00;;;;;;5067617;28;20487;-59
2021/04/18 08:13:50;;;;;;;20.57;18.30;;;13.60;1.00;;;;;;5066119;28;20441;-57
2021/04/18 08:16:33;;;;;;;22.20;18.57;;;13.60;1.00;;;;;;5067113;28;20452;-58
2021/04/18 08:19:07;;;;;;;21.57;18.67;;;13.60;1.00;;;;;;5069679;28;20445;-58
2021/04/18 08:21:38;;;;;;;23.87;19.63;;;13.60;1.00;;;;;;5068046;28;20446;-59
2021/04/18 08:24:06;;;;;;;22.33;19.37;;;13.80;1.00;;;;;;5069908;28;20451;-56
2021/04/18 08:26:35;;;;;;;23.47;17.90;;;13.80;1.00;;;;;;5066538;28;20443;-58
2021/04/18 08:29:04;;;;;;;24.17;19.73;;;13.90;1.00;;;;;;5067198;28;20465;-57
2021/04/18 08:31:31;;;;;;;21.93;18.87;;;14.10;1.00;;;;;;5067602;28;20851;-58
2021/04/18 08:34:03;;;;;;;21.90;19.10;;;14.40;1.00;;;;;;5068313;28;20529;-58
2021/04/18 08:36:34;;;;;;;23.07;19.07;;;14.60;1.00;;;;;;5067858;28;20468;-55
2021/04/18 08:39:05;;;;;;;24.80;20.53;;;14.70;1.00;;;;;;5069156;28;21050;-57
2021/04/18 08:41:55;;;;;;;22.23;19.93;;;14.60;1.00;;;;;;5068088;28;20803;-59
2021/04/18 08:44:36;;;;;;;26.83;23.23;;;14.60;1.00;;;;;;5067051;28;20830;-58
2021/04/18 08:47:05;;;;;;;26.30;21.80;;;14.00;1.00;;;;;;5068584;28;20528;-58
2021/04/18 08:49:35;;;;;;;24.70;21.67;;;14.00;1.00;;;;;;5066216;28;20434;-57
2021/04/18 08:52:03;;;;;;;22.20;19.90;;;13.60;1.00;;;;;;5068214;28;20946;-58
2021/04/18 08:54:43;;;;;;;28.03;21.33;;;13.30;1.00;;;;;;5069044;28;20498;-59
2021/04/18 08:57:21;;;;;;;22.73;19.80;;;13.10;1.00;;;;;;5076739;28;20455;-57
2021/04/18 08:59:51;;;;;;;22.67;19.83;;;13.00;1.00;;;;;;5090103;28;20444;-56
2021/04/18 09:02:17;;;;;;;23.37;20.17;;;12.80;1.00;;;;;;5066105;28;20448;-57
2021/04/18 09:04:46;;;;;;;23.23;20.53;;;12.90;1.00;;;;;;5070344;28;20436;-58
2021/04/18 09:07:24;;;;;;;27.80;20.83;;;12.90;1.00;;;;;;5070121;28;20195;-58
2021/04/18 09:09:50;;;;;;;26.57;20.90;;;13.30;1.00;;;;;;5069945;28;20831;-59
2021/04/18 09:12:17;;;;;;;27.67;21.90;;;13.40;1.00;;;;;;5070063;28;20475;-56
2021/04/18 09:14:48;;;;;;;23.67;20.10;;;13.40;1.00;;;;;;5077986;28;20659;-57
2021/04/18 09:17:28;;;;;;;26.10;21.40;;;13.40;1.00;;;;;;5071497;28;20931;-57
2021/04/18 09:19:58;;;;;;;24.97;20.27;;;13.40;1.00;;;;;;5090052;28;20463;-57
2021/04/18 09:22:27;;;;;;;25.47;20.43;;;13.20;1.00;;;;;;5081805;28;20954;-57
2021/04/18 09:24:59;;;;;;;27.30;21.83;;;13.20;1.00;;;;;;5069803;28;20444;-59
2021/04/18 09:27:26;;;;;;;24.73;21.90;;;13.20;1.00;;;;;;5070037;28;20485;-57
2021/04/18 09:30:08;;;;;;;27.33;22.60;;;13.10;1.00;;;;;;5070038;28;20468;-58
2021/04/18 09:32:36;;;;;;;30.20;22.87;;;13.10;1.00;;;;;;5070340;28;20421;-57
2021/04/18 09:35:03;;;;;;;35.33;26.73;;;13.10;1.00;;;;;;5069969;28;20427;-58
2021/04/18 09:37:37;;;;;;;33.03;23.40;;;12.90;1.00;;;;;;5068176;28;20438;-60
2021/04/18 09:40:08;;;;;;;28.30;23.10;;;12.50;1.00;;;;;;5069613;28;20444;-58
2021/04/18 09:42:36;;;;;;;28.53;23.30;;;12.50;1.00;;;;;;5068468;28;20449;-57
2021/04/18 09:45:09;;;;;;;27.37;22.47;;;12.20;1.00;;;;;;5069752;28;20523;-57
2021/04/18 09:47:35;;;;;;;29.00;23.50;;;12.00;1.00;;;;;;5069670;28;21002;-58
2021/04/18 09:50:13;;;;;;;32.10;23.47;;;11.90;1.00;;;;;;5067883;28;20566;-57
2021/04/18 09:52:40;;;;;;;31.90;24.20;;;12.00;1.00;;;;;;5070561;28;20568;-56
2021/04/18 09:55:15;;;;;;;29.70;25.63;;;12.00;1.00;;;;;;5070901;28;20462;-56
2021/04/18 09:57:46;;;;;;;29.40;23.93;;;11.70;1.00;;;;;;5068275;28;20814;-57
2021/04/18 10:00:15;;;;;;;31.57;25.17;;;11.60;1.00;;;;;;5070000;28;20956;-56
2021/04/18 10:02:42;;;;;;;27.00;24.10;;;11.30;1.00;;;;;;5073200;28;20905;-56
2021/04/18 10:05:11;;;;;;;27.77;22.20;;;11.10;1.00;;;;;;5072643;28;20469;-56
2021/04/18 10:07:37;;;;;;;29.80;22.30;;;11.00;1.00;;;;;;5073087;28;20438;-56
2021/04/18 10:10:03;;;;;;;26.57;22.10;;;11.30;1.00;;;;;;5069278;28;20551;-57
2021/04/18 10:12:29;;;;;;;23.97;20.37;;;11.30;1.00;;;;;;5076130;28;20769;-57
2021/04/18 10:15:05;;;;;;;23.30;20.60;;;11.50;1.00;;;;;;5073102;28;20595;-57
2021/04/18 10:17:36;;;;;;;27.97;21.90;;;11.90;1.00;;;;;;5073143;28;20204;-58
2021/04/18 10:20:03;;;;;;;22.33;19.90;;;12.00;1.00;;;;;;5071003;28;20436;-57
2021/04/18 10:22:29;;;;;;;23.70;21.10;;;12.00;1.00;;;;;;5091661;28;20495;-57
2021/04/18 10:24:56;;;;;;;23.43;19.70;;;11.90;1.00;;;;;;5090024;28;20443;-57
2021/04/18 10:27:29;;;;;;;23.00;20.67;;;11.80;1.00;;;;;;5072438;28;20209;-57
2021/04/18 10:29:54;;;;;;;24.60;19.90;;;11.70;1.00;;;;;;5072922;28;20464;-57
2021/04/18 10:32:21;;;;;;;21.03;18.83;;;11.80;1.00;;;;;;5073037;28;20434;-57
2021/04/18 10:34:52;;;;;;;22.57;19.50;;;11.90;1.00;;;;;;5075264;28;20189;-56
2021/04/18 10:37:19;;;;;;;23.60;19.17;;;12.00;1.00;;;;;;5072138;28;20431;-57
2021/04/18 10:39:44;;;;;;;20.73;18.03;;;12.20;1.00;;;;;;5072500;28;20925;-56
2021/04/18 10:42:11;;;;;;;21.17;18.03;;;12.40;1.00;;;;;;5072531;28;20453;-57
2021/04/18 10:44:37;;;;;;;20.40;16.97;;;12.40;1.00;;;;;;5072503;28;20244;-58
2021/04/18 10:47:05;;;;;;;21.70;18.70;;;12.30;1.00;;;;;;5072190;28;20497;-58
2021/04/18 10:49:31;;;;;;;19.70;17.60;;;12.20;1.00;;;;;;5072101;28;20459;-58
2021/04/18 10:51:57;;;;;;;19.70;16.67;;;12.30;1.00;;;;;;5071450;28;21022;-57
2021/04/18 10:54:24;;;;;;;18.50;16.60;;;12.10;1.00;;;;;;5072392;28;20436;-56
2021/04/18 10:56:51;;;;;;;18.53;16.73;;;12.20;1.00;;;;;;5071298;28;20432;-57
2021/04/18 10:59:18;;;;;;;20.30;17.93;;;12.30;1.00;;;;;;5068226;28;20440;-57
2021/04/18 11:01:43;;;;;;;19.03;17.07;;;12.30;1.00;;;;;;5071478;28;20990;-56
2021/04/18 11:04:10;;;;;;;19.00;16.37;;;12.20;1.00;;;;;;5072128;28;20450;-59
2021/04/18 11:06:36;;;;;;;18.53;16.43;;;12.70;1.00;;;;;;5072398;28;20441;-58
2021/04/18 11:09:02;;;;;;;19.57;16.40;;;;;;;;;;5071730;28;20505;-58
2021/04/18 11:11:27;;;;;;;19.30;15.90;;;12.50;1.00;;;;;;5072159;28;20292;-58
2021/04/18 11:13:53;;;;;;;18.30;16.40;;;12.50;1.00;;;;;;5071757;28;20532;-57
2021/04/18 11:16:19;;;;;;;19.97;16.00;;;12.60;1.00;;;;;;5072366;28;20186;-57
2021/04/18 11:18:46;;;;;;;17.40;15.30;;;12.70;1.00;;;;;;5071956;28;20183;-57
2021/04/18 11:21:11;;;;;;;19.60;17.70;;;13.00;1.00;;;;;;5070958;28;20222;-58
2021/04/18 11:23:37;;;;;;;19.53;17.03;;;13.00;1.00;;;;;;5071518;28;20851;-58
2021/04/18 11:26:03;;;;;;;23.03;17.60;;;13.10;1.00;;;;;;5070123;28;20186;-58
2021/04/18 11:28:29;;;;;;;18.73;16.20;;;13.00;1.00;;;;;;5071804;28;20736;-57
2021/04/18 11:30:54;;;;;;;18.83;16.37;;;13.00;1.00;;;;;;5070936;28;20484;-60
2021/04/18 11:33:20;;;;;;;18.80;16.63;;;13.10;1.00;;;;;;5070136;28;20676;-59
2021/04/18 11:35:45;;;;;;;18.70;16.73;;;13.10;1.00;;;;;;5071527;28;20218;-58
2021/04/18 11:38:11;;;;;;;17.60;15.67;;;12.90;1.00;;;;;;5071372;28;20209;-59
2021/04/18 11:40:37;;;;;;;19.73;17.73;;;12.90;1.00;;;;;;5070430;28;20551;-59
2021/04/18 11:43:03;;;;;;;18.73;16.73;;;13.20;1.00;;;;;;5071280;28;20190;-57
2021/04/18 11:45:29;;;;;;;19.60;17.60;;;13.30;1.00;;;;;;5071394;28;20193;-58
2021/04/18 11:47:55;;;;;;;18.97;16.30;;;13.30;1.00;;;;;;5071352;28;20823;-59
2021/04/18 11:50:21;;;;;;;19.60;16.70;;;13.40;1.00;;;;;;5070381;28;21058;-57
2021/04/18 11:52:47;;;;;;;19.23;17.23;;;13.30;1.00;;;;;;5069194;28;20522;-57
2021/04/18 11:55:15;;;;;;;16.33;13.77;;;13.30;1.00;;;;;;5068727;28;20190;-56
2021/04/18 11:57:42;;;;;;;15.67;14.07;;;13.40;1.00;;;;;;5071824;28;20444;-58
2021/04/18 12:00:10;;;;;;;17.33;15.53;;;13.20;1.00;;;;;;5070675;28;20453;-58
2021/04/18 12:02:36;;;;;;;16.67;14.97;;;13.30;1.00;;;;;;5070167;28;20490;-59
2021/04/18 12:05:02;;;;;;;16.53;14.83;;;13.20;1.00;;;;;;5070741;28;20823;-59
2021/04/18 12:07:28;;;;;;;15.10;13.50;;;13.00;1.00;;;;;;5070633;28;20441;-58
2021/04/18 12:09:54;;;;;;;16.23;14.50;;;13.00;1.00;;;;;;5070576;28;20467;-59
2021/04/18 12:12:20;;;;;;;13.23;11.93;;;12.90;1.00;;;;;;5068037;28;20264;-57
2021/04/18 12:14:46;;;;;;;11.50;9.87;;;12.90;1.00;;;;;;5070925;28;20194;-57
2021/04/18 12:17:12;;;;;;;9.77;8.77;;;12.80;1.00;;;;;;5070301;28;20795;-58
2021/04/18 12:19:37;;;;;;;10.93;9.70;;;12.40;1.00;;;;;;5070160;28;20440;-57
2021/04/18 12:22:03;;;;;;;6.87;6.23;;;12.70;1.00;;;;;;5068776;28;20468;-58
2021/04/18 12:24:29;;;;;;;7.40;6.23;;;12.70;1.00;;;;;;5067427;28;20219;-57
2021/04/18 12:26:54;;;;;;;7.17;6.33;;;12.80;1.00;;;;;;5070390;28;20447;-59
2021/04/18 12:29:20;;;;;;;7.03;6.40;;;13.10;1.00;;;;;;5070432;28;20242;-59
2021/04/18 12:31:46;;;;;;;6.50;5.90;;;13.20;1.00;;;;;;5070439;28;20226;-58
2021/04/18 12:34:11;;;;;;;7.87;6.30;;;13.40;1.00;;;;;;5070600;28;20182;-60
2021/04/18 12:36:37;;;;;;;7.40;6.70;;;13.50;1.00;;;;;;5070452;28;20186;-58
2021/04/18 12:39:04;;;;;;;8.13;6.23;;;13.50;1.00;;;;;;5071006;28;20198;-58